sensor_id;sensor_type;location;lat;lon;timestamp;P1;durP1;ratioP1;P2;durP2;ratioP2
6463;SDS011;3265;42.694;23.282;2023-07-20T00:00:22;15.07;;;3.70;;
6463;SDS011;3265;42.694;23.282;2023-07-20T00:02:49;10.18;;;3.65;;
6463;SDS011;3265;42.694;23.282;2023-07-20T00:05:17;14.05;;;3.65;;
6463;SDS011;3265;42.694;23.282;2023-07-20T00:07:46;11.52;;;3.22;;
6463;SDS011;3265;42.694;23.282;2023-07-20T00:10:17;5.72;;;2.90;;
6463;SDS011;3265;42.694;23.282;2023-07-20T00:12:43;10.45;;;3.28;;
6463;SDS011;3265;42.694;23.282;2023-07-20T00:15:14;11.63;;;3.00;;
6463;SDS011;3265;42.694;23.282;2023-07-20T00:17:40;8.02;;;3.08;;
6463;SDS011;3265;42.694;23.282;2023-07-20T00:20:08;8.40;;;3.03;;
6463;SDS011;3265;42.694;23.282;2023-07-20T00:22:35;9.30;;;3.05;;
6463;SDS011;3265;42.694;23.282;2023-07-20T00:25:02;10.27;;;3.35;;
6463;SDS011;3265;42.694;23.282;2023-07-20T00:27:29;12.02;;;3.40;;
6463;SDS011;3265;42.694;23.282;2023-07-20T00:29:56;12.15;;;3.33;;
6463;SDS011;3265;42.694;23.282;2023-07-20T00:32:24;9.75;;;3.42;;
6463;SDS011;3265;42.694;23.282;2023-07-20T00:34:51;11.73;;;3.40;;
6463;SDS011;3265;42.694;23.282;2023-07-20T00:37:18;11.43;;;3.72;;
6463;SDS011;3265;42.694;23.282;2023-07-20T00:39:45;8.25;;;3.50;;
6463;SDS011;3265;42.694;23.282;2023-07-20T00:42:11;12.95;;;4.20;;
6463;SDS011;3265;42.694;23.282;2023-07-20T00:44:38;11.85;;;3.50;;
6463;SDS011;3265;42.694;23.282;2023-07-20T00:47:05;12.82;;;3.33;;
6463;SDS011;3265;42.694;23.282;2023-07-20T00:49:34;9.45;;;3.05;;
6463;SDS011;3265;42.694;23.282;2023-07-20T00:52:00;7.65;;;3.40;;
6463;SDS011;3265;42.694;23.282;2023-07-20T00:54:29;8.70;;;3.25;;
6463;SDS011;3265;42.694;23.282;2023-07-20T00:56:56;15.13;;;3.63;;
6463;SDS011;3265;42.694;23.282;2023-07-20T00:59:24;10.30;;;3.60;;
6463;SDS011;3265;42.694;23.282;2023-07-20T01:01:52;13.80;;;4.35;;
6463;SDS011;3265;42.694;23.282;2023-07-20T01:04:18;10.40;;;3.70;;
6463;SDS011;3265;42.694;23.282;2023-07-20T01:06:48;10.98;;;4.07;;
6463;SDS011;3265;42.694;23.282;2023-07-20T01:09:25;10.35;;;3.97;;
6463;SDS011;3265;42.694;23.282;2023-07-20T01:11:59;12.43;;;3.60;;
6463;SDS011;3265;42.694;23.282;2023-07-20T01:14:31;8.65;;;3.70;;
6463;SDS011;3265;42.694;23.282;2023-07-20T01:16:58;10.60;;;3.22;;
6463;SDS011;3265;42.694;23.282;2023-07-20T01:19:25;11.73;;;3.55;;
6463;SDS011;3265;42.694;23.282;2023-07-20T01:21:55;7.50;;;3.20;;
6463;SDS011;3265;42.694;23.282;2023-07-20T01:27:36;11.00;;;3.55;;
6463;SDS011;3265;42.694;23.282;2023-07-20T01:30:35;8.40;;;3.08;;
6463;SDS011;3265;42.694;23.282;2023-07-20T01:33:15;14.30;;;3.50;;
6463;SDS011;3265;42.694;23.282;2023-07-20T01:35:44;12.25;;;3.28;;
6463;SDS011;3265;42.694;23.282;2023-07-20T01:38:12;9.45;;;3.05;;
6463;SDS011;3265;42.694;23.282;2023-07-20T01:40:40;11.25;;;3.55;;
6463;SDS011;3265;42.694;23.282;2023-07-20T01:43:07;8.90;;;3.15;;
6463;SDS011;3265;42.694;23.282;2023-07-20T01:45:34;9.20;;;2.80;;
6463;SDS011;3265;42.694;23.282;2023-07-20T01:48:01;10.90;;;3.67;;
6463;SDS011;3265;42.694;23.282;2023-07-20T01:50:30;12.65;;;3.15;;
6463;SDS011;3265;42.694;23.282;2023-07-20T01:52:57;14.90;;;3.45;;
6463;SDS011;3265;42.694;23.282;2023-07-20T01:55:24;8.82;;;3.08;;
6463;SDS011;3265;42.694;23.282;2023-07-20T01:57:51;15.20;;;3.40;;
6463;SDS011;3265;42.694;23.282;2023-07-20T02:00:19;10.10;;;3.13;;
6463;SDS011;3265;42.694;23.282;2023-07-20T02:02:49;11.80;;;3.50;;
6463;SDS011;3265;42.694;23.282;2023-07-20T02:05:16;11.07;;;3.63;;
6463;SDS011;3265;42.694;23.282;2023-07-20T02:07:44;10.93;;;3.10;;
6463;SDS011;3265;42.694;23.282;2023-07-20T02:10:11;7.28;;;3.53;;
6463;SDS011;3265;42.694;23.282;2023-07-20T02:12:38;13.40;;;3.47;;
6463;SDS011;3265;42.694;23.282;2023-07-20T02:15:05;10.00;;;3.83;;
6463;SDS011;3265;42.694;23.282;2023-07-20T02:17:33;12.23;;;3.00;;
6463;SDS011;3265;42.694;23.282;2023-07-20T02:20:00;8.18;;;3.40;;
6463;SDS011;3265;42.694;23.282;2023-07-20T02:22:27;13.63;;;3.78;;
6463;SDS011;3265;42.694;23.282;2023-07-20T02:24:55;8.82;;;3.30;;
6463;SDS011;3265;42.694;23.282;2023-07-20T02:27:22;12.57;;;3.63;;
6463;SDS011;3265;42.694;23.282;2023-07-20T02:29:48;13.32;;;3.13;;
6463;SDS011;3265;42.694;23.282;2023-07-20T02:32:16;14.07;;;3.30;;
6463;SDS011;3265;42.694;23.282;2023-07-20T02:34:42;10.15;;;3.28;;
6463;SDS011;3265;42.694;23.282;2023-07-20T02:37:09;10.52;;;3.50;;
6463;SDS011;3265;42.694;23.282;2023-07-20T02:39:38;14.98;;;3.80;;
6463;SDS011;3265;42.694;23.282;2023-07-20T02:42:06;15.18;;;3.67;;
6463;SDS011;3265;42.694;23.282;2023-07-20T02:44:33;10.07;;;3.40;;
6463;SDS011;3265;42.694;23.282;2023-07-20T02:47:00;17.80;;;3.70;;
6463;SDS011;3265;42.694;23.282;2023-07-20T02:49:27;13.13;;;3.75;;
6463;SDS011;3265;42.694;23.282;2023-07-20T02:51:54;7.68;;;3.30;;
6463;SDS011;3265;42.694;23.282;2023-07-20T02:54:20;15.35;;;3.55;;
6463;SDS011;3265;42.694;23.282;2023-07-20T02:56:48;9.32;;;3.30;;
6463;SDS011;3265;42.694;23.282;2023-07-20T02:59:16;11.65;;;3.60;;
6463;SDS011;3265;42.694;23.282;2023-07-20T03:01:43;15.52;;;4.18;;
6463;SDS011;3265;42.694;23.282;2023-07-20T03:04:10;14.15;;;4.47;;
6463;SDS011;3265;42.694;23.282;2023-07-20T03:06:37;15.07;;;3.75;;
6463;SDS011;3265;42.694;23.282;2023-07-20T03:09:04;11.52;;;3.97;;
6463;SDS011;3265;42.694;23.282;2023-07-20T03:11:32;12.38;;;4.50;;
6463;SDS011;3265;42.694;23.282;2023-07-20T03:13:59;18.20;;;4.38;;
6463;SDS011;3265;42.694;23.282;2023-07-20T03:16:28;14.93;;;4.38;;
6463;SDS011;3265;42.694;23.282;2023-07-20T03:18:57;16.23;;;4.43;;
6463;SDS011;3265;42.694;23.282;2023-07-20T03:21:24;11.27;;;4.20;;
6463;SDS011;3265;42.694;23.282;2023-07-20T03:23:51;16.08;;;4.53;;
6463;SDS011;3265;42.694;23.282;2023-07-20T03:26:29;16.13;;;4.45;;
6463;SDS011;3265;42.694;23.282;2023-07-20T03:28:56;15.85;;;4.88;;
6463;SDS011;3265;42.694;23.282;2023-07-20T03:31:22;17.00;;;4.45;;
6463;SDS011;3265;42.694;23.282;2023-07-20T03:33:51;15.23;;;4.43;;
6463;SDS011;3265;42.694;23.282;2023-07-20T03:36:18;14.40;;;3.97;;
6463;SDS011;3265;42.694;23.282;2023-07-20T03:38:45;13.25;;;4.05;;
6463;SDS011;3265;42.694;23.282;2023-07-20T03:41:12;16.13;;;4.55;;
6463;SDS011;3265;42.694;23.282;2023-07-20T03:43:41;19.48;;;5.28;;
6463;SDS011;3265;42.694;23.282;2023-07-20T03:46:07;18.58;;;4.88;;
6463;SDS011;3265;42.694;23.282;2023-07-20T03:48:34;17.40;;;4.93;;
6463;SDS011;3265;42.694;23.282;2023-07-20T03:51:02;19.00;;;5.07;;
6463;SDS011;3265;42.694;23.282;2023-07-20T03:53:29;16.55;;;5.10;;
6463;SDS011;3265;42.694;23.282;2023-07-20T03:55:57;16.13;;;4.65;;
6463;SDS011;3265;42.694;23.282;2023-07-20T03:58:23;14.40;;;4.90;;
6463;SDS011;3265;42.694;23.282;2023-07-20T04:00:51;13.93;;;4.95;;
6463;SDS011;3265;42.694;23.282;2023-07-20T04:03:18;17.08;;;5.40;;
6463;SDS011;3265;42.694;23.282;2023-07-20T04:05:45;24.70;;;6.25;;
6463;SDS011;3265;42.694;23.282;2023-07-20T04:08:14;12.75;;;6.03;;
6463;SDS011;3265;42.694;23.282;2023-07-20T04:10:43;20.63;;;5.93;;
6463;SDS011;3265;42.694;23.282;2023-07-20T04:13:10;17.02;;;5.25;;
6463;SDS011;3265;42.694;23.282;2023-07-20T04:15:37;21.23;;;6.18;;
6463;SDS011;3265;42.694;23.282;2023-07-20T04:18:04;16.73;;;5.55;;
6463;SDS011;3265;42.694;23.282;2023-07-20T04:20:31;16.42;;;4.82;;
6463;SDS011;3265;42.694;23.282;2023-07-20T04:22:58;12.55;;;4.88;;
6463;SDS011;3265;42.694;23.282;2023-07-20T04:25:29;13.93;;;4.97;;
6463;SDS011;3265;42.694;23.282;2023-07-20T04:28:04;17.63;;;4.72;;
6463;SDS011;3265;42.694;23.282;2023-07-20T04:30:34;13.77;;;4.43;;
6463;SDS011;3265;42.694;23.282;2023-07-20T04:33:02;12.77;;;4.53;;
6463;SDS011;3265;42.694;23.282;2023-07-20T04:35:45;17.73;;;4.68;;
6463;SDS011;3265;42.694;23.282;2023-07-20T04:38:14;17.73;;;5.43;;
6463;SDS011;3265;42.694;23.282;2023-07-20T04:40:43;12.82;;;4.65;;
6463;SDS011;3265;42.694;23.282;2023-07-20T04:43:10;13.85;;;4.78;;
6463;SDS011;3265;42.694;23.282;2023-07-20T04:45:37;15.70;;;5.00;;
6463;SDS011;3265;42.694;23.282;2023-07-20T04:48:06;14.77;;;4.88;;
6463;SDS011;3265;42.694;23.282;2023-07-20T04:50:35;13.65;;;4.93;;
6463;SDS011;3265;42.694;23.282;2023-07-20T04:53:02;13.63;;;4.90;;
6463;SDS011;3265;42.694;23.282;2023-07-20T04:55:29;21.40;;;5.28;;
6463;SDS011;3265;42.694;23.282;2023-07-20T04:58:00;9.57;;;4.43;;
6463;SDS011;3265;42.694;23.282;2023-07-20T05:00:27;12.30;;;4.47;;
6463;SDS011;3265;42.694;23.282;2023-07-20T05:02:54;14.40;;;4.93;;
6463;SDS011;3265;42.694;23.282;2023-07-20T05:05:21;14.73;;;4.50;;
6463;SDS011;3265;42.694;23.282;2023-07-20T05:07:48;13.50;;;4.78;;
6463;SDS011;3265;42.694;23.282;2023-07-20T05:10:14;14.60;;;4.88;;
6463;SDS011;3265;42.694;23.282;2023-07-20T05:12:41;11.18;;;4.35;;
6463;SDS011;3265;42.694;23.282;2023-07-20T05:15:10;13.60;;;4.72;;
6463;SDS011;3265;42.694;23.282;2023-07-20T05:17:37;13.00;;;4.25;;
6463;SDS011;3265;42.694;23.282;2023-07-20T05:20:05;13.73;;;4.90;;
6463;SDS011;3265;42.694;23.282;2023-07-20T05:22:35;12.02;;;4.57;;
6463;SDS011;3265;42.694;23.282;2023-07-20T05:25:05;10.43;;;4.57;;
6463;SDS011;3265;42.694;23.282;2023-07-20T05:27:32;11.77;;;4.30;;
6463;SDS011;3265;42.694;23.282;2023-07-20T05:29:59;14.63;;;4.90;;
6463;SDS011;3265;42.694;23.282;2023-07-20T05:32:27;13.98;;;4.47;;
6463;SDS011;3265;42.694;23.282;2023-07-20T05:34:54;13.27;;;4.68;;
6463;SDS011;3265;42.694;23.282;2023-07-20T05:37:21;16.05;;;5.13;;
6463;SDS011;3265;42.694;23.282;2023-07-20T05:39:48;12.63;;;4.53;;
6463;SDS011;3265;42.694;23.282;2023-07-20T05:42:15;17.30;;;4.43;;
6463;SDS011;3265;42.694;23.282;2023-07-20T05:44:42;9.73;;;4.38;;
6463;SDS011;3265;42.694;23.282;2023-07-20T05:47:09;14.68;;;4.55;;
6463;SDS011;3265;42.694;23.282;2023-07-20T05:49:38;11.85;;;4.50;;
6463;SDS011;3265;42.694;23.282;2023-07-20T05:52:05;15.65;;;4.72;;
6463;SDS011;3265;42.694;23.282;2023-07-20T05:54:32;11.98;;;4.78;;
6463;SDS011;3265;42.694;23.282;2023-07-20T05:56:59;13.32;;;5.28;;
6463;SDS011;3265;42.694;23.282;2023-07-20T05:59:26;16.70;;;5.50;;
6463;SDS011;3265;42.694;23.282;2023-07-20T06:01:54;15.27;;;6.07;;
6463;SDS011;3265;42.694;23.282;2023-07-20T06:04:21;14.73;;;6.70;;
6463;SDS011;3265;42.694;23.282;2023-07-20T06:06:49;18.85;;;6.18;;
6463;SDS011;3265;42.694;23.282;2023-07-20T06:09:16;14.80;;;6.20;;
6463;SDS011;3265;42.694;23.282;2023-07-20T06:11:44;15.43;;;6.07;;
6463;SDS011;3265;42.694;23.282;2023-07-20T06:14:11;16.35;;;5.60;;
6463;SDS011;3265;42.694;23.282;2023-07-20T06:16:38;20.38;;;6.32;;
6463;SDS011;3265;42.694;23.282;2023-07-20T06:19:05;20.42;;;6.20;;
6463;SDS011;3265;42.694;23.282;2023-07-20T06:21:32;16.25;;;5.78;;
6463;SDS011;3265;42.694;23.282;2023-07-20T06:24:01;18.60;;;6.70;;
6463;SDS011;3265;42.694;23.282;2023-07-20T06:26:28;15.77;;;5.70;;
6463;SDS011;3265;42.694;23.282;2023-07-20T06:28:55;16.80;;;6.70;;
6463;SDS011;3265;42.694;23.282;2023-07-20T06:31:21;12.30;;;5.32;;
6463;SDS011;3265;42.694;23.282;2023-07-20T06:33:48;16.92;;;5.53;;
6463;SDS011;3265;42.694;23.282;2023-07-20T06:36:18;14.75;;;5.88;;
6463;SDS011;3265;42.694;23.282;2023-07-20T06:38:44;15.20;;;5.18;;
6463;SDS011;3265;42.694;23.282;2023-07-20T06:41:13;14.65;;;5.88;;
6463;SDS011;3265;42.694;23.282;2023-07-20T06:43:39;15.23;;;4.90;;
6463;SDS011;3265;42.694;23.282;2023-07-20T06:46:06;17.92;;;5.88;;
6463;SDS011;3265;42.694;23.282;2023-07-20T06:48:33;15.48;;;5.90;;
6463;SDS011;3265;42.694;23.282;2023-07-20T06:51:00;17.90;;;6.20;;
6463;SDS011;3265;42.694;23.282;2023-07-20T06:53:27;18.15;;;5.97;;
6463;SDS011;3265;42.694;23.282;2023-07-20T06:55:54;15.00;;;5.40;;
6463;SDS011;3265;42.694;23.282;2023-07-20T06:58:24;15.95;;;5.32;;
6463;SDS011;3265;42.694;23.282;2023-07-20T07:00:51;22.35;;;5.45;;
6463;SDS011;3265;42.694;23.282;2023-07-20T07:03:20;8.95;;;4.93;;
6463;SDS011;3265;42.694;23.282;2023-07-20T07:05:49;13.43;;;4.85;;
6463;SDS011;3265;42.694;23.282;2023-07-20T07:08:16;18.55;;;4.80;;
6463;SDS011;3265;42.694;23.282;2023-07-20T07:10:42;16.42;;;5.30;;
6463;SDS011;3265;42.694;23.282;2023-07-20T07:13:09;21.80;;;5.63;;
6463;SDS011;3265;42.694;23.282;2023-07-20T07:15:38;18.05;;;5.65;;
6463;SDS011;3265;42.694;23.282;2023-07-20T07:18:04;13.55;;;5.03;;
6463;SDS011;3265;42.694;23.282;2023-07-20T07:20:31;16.25;;;5.68;;
6463;SDS011;3265;42.694;23.282;2023-07-20T07:22:58;15.43;;;4.63;;
6463;SDS011;3265;42.694;23.282;2023-07-20T07:25:25;19.42;;;5.20;;
6463;SDS011;3265;42.694;23.282;2023-07-20T07:27:52;15.30;;;4.93;;
6463;SDS011;3265;42.694;23.282;2023-07-20T07:30:20;20.40;;;4.63;;
6463;SDS011;3265;42.694;23.282;2023-07-20T07:32:49;14.50;;;4.60;;
6463;SDS011;3265;42.694;23.282;2023-07-20T07:35:15;19.42;;;5.38;;
6463;SDS011;3265;42.694;23.282;2023-07-20T07:37:42;13.02;;;5.13;;
6463;SDS011;3265;42.694;23.282;2023-07-20T07:40:11;14.13;;;5.18;;
6463;SDS011;3265;42.694;23.282;2023-07-20T07:42:38;18.08;;;4.72;;
6463;SDS011;3265;42.694;23.282;2023-07-20T07:45:05;14.88;;;5.25;;
6463;SDS011;3265;42.694;23.282;2023-07-20T07:47:33;9.77;;;5.18;;
6463;SDS011;3265;42.694;23.282;2023-07-20T07:50:02;18.67;;;5.15;;
6463;SDS011;3265;42.694;23.282;2023-07-20T07:52:29;13.40;;;5.05;;
6463;SDS011;3265;42.694;23.282;2023-07-20T07:54:57;14.20;;;5.18;;
6463;SDS011;3265;42.694;23.282;2023-07-20T07:57:25;13.43;;;4.97;;
6463;SDS011;3265;42.694;23.282;2023-07-20T07:59:52;15.02;;;4.82;;
6463;SDS011;3265;42.694;23.282;2023-07-20T08:02:18;16.08;;;4.70;;
6463;SDS011;3265;42.694;23.282;2023-07-20T08:04:46;16.23;;;5.55;;
6463;SDS011;3265;42.694;23.282;2023-07-20T08:07:14;15.80;;;4.85;;
6463;SDS011;3265;42.694;23.282;2023-07-20T08:09:41;14.35;;;4.45;;
6463;SDS011;3265;42.694;23.282;2023-07-20T08:12:08;11.93;;;4.43;;
6463;SDS011;3265;42.694;23.282;2023-07-20T08:14:35;14.10;;;4.85;;
6463;SDS011;3265;42.694;23.282;2023-07-20T08:17:02;21.20;;;5.20;;
6463;SDS011;3265;42.694;23.282;2023-07-20T08:19:29;15.55;;;4.75;;
6463;SDS011;3265;42.694;23.282;2023-07-20T08:21:56;14.27;;;4.47;;
6463;SDS011;3265;42.694;23.282;2023-07-20T08:24:24;18.63;;;3.83;;
6463;SDS011;3265;42.694;23.282;2023-07-20T08:26:51;11.27;;;4.10;;
6463;SDS011;3265;42.694;23.282;2023-07-20T08:29:17;8.38;;;4.05;;
6463;SDS011;3265;42.694;23.282;2023-07-20T08:31:44;13.23;;;5.20;;
6463;SDS011;3265;42.694;23.282;2023-07-20T08:34:11;26.00;;;9.43;;
6463;SDS011;3265;42.694;23.282;2023-07-20T08:36:38;20.80;;;7.65;;
6463;SDS011;3265;42.694;23.282;2023-07-20T08:39:05;19.75;;;6.35;;
6463;SDS011;3265;42.694;23.282;2023-07-20T08:41:34;13.98;;;5.47;;
6463;SDS011;3265;42.694;23.282;2023-07-20T08:44:02;11.30;;;4.10;;
6463;SDS011;3265;42.694;23.282;2023-07-20T08:46:29;17.80;;;3.90;;
6463;SDS011;3265;42.694;23.282;2023-07-20T08:48:57;13.00;;;3.75;;
6463;SDS011;3265;42.694;23.282;2023-07-20T08:51:25;15.45;;;3.90;;
6463;SDS011;3265;42.694;23.282;2023-07-20T08:53:53;10.35;;;4.00;;
6463;SDS011;3265;42.694;23.282;2023-07-20T08:56:20;15.95;;;5.38;;
6463;SDS011;3265;42.694;23.282;2023-07-20T08:58:49;15.50;;;4.82;;
6463;SDS011;3265;42.694;23.282;2023-07-20T09:01:16;10.40;;;4.20;;
6463;SDS011;3265;42.694;23.282;2023-07-20T09:03:45;13.10;;;3.78;;
6463;SDS011;3265;42.694;23.282;2023-07-20T09:06:12;15.90;;;3.90;;
6463;SDS011;3265;42.694;23.282;2023-07-20T09:08:39;16.67;;;3.42;;
6463;SDS011;3265;42.694;23.282;2023-07-20T09:11:06;9.15;;;3.80;;
6463;SDS011;3265;42.694;23.282;2023-07-20T09:13:33;13.77;;;3.42;;
6463;SDS011;3265;42.694;23.282;2023-07-20T09:16:01;13.60;;;3.42;;
6463;SDS011;3265;42.694;23.282;2023-07-20T09:18:30;15.32;;;3.83;;
6463;SDS011;3265;42.694;23.282;2023-07-20T09:21:00;12.45;;;3.80;;
6463;SDS011;3265;42.694;23.282;2023-07-20T09:23:31;11.45;;;3.75;;
6463;SDS011;3265;42.694;23.282;2023-07-20T09:25:59;8.90;;;3.22;;
6463;SDS011;3265;42.694;23.282;2023-07-20T09:28:26;11.88;;;3.53;;
6463;SDS011;3265;42.694;23.282;2023-07-20T09:30:54;13.40;;;3.72;;
6463;SDS011;3265;42.694;23.282;2023-07-20T09:33:24;8.63;;;3.40;;
6463;SDS011;3265;42.694;23.282;2023-07-20T09:35:50;21.13;;;3.85;;
6463;SDS011;3265;42.694;23.282;2023-07-20T09:38:17;13.60;;;3.35;;
6463;SDS011;3265;42.694;23.282;2023-07-20T09:40:44;11.38;;;3.50;;
6463;SDS011;3265;42.694;23.282;2023-07-20T09:43:11;12.77;;;3.40;;
6463;SDS011;3265;42.694;23.282;2023-07-20T09:45:41;6.85;;;3.30;;
6463;SDS011;3265;42.694;23.282;2023-07-20T09:48:09;13.93;;;3.33;;
6463;SDS011;3265;42.694;23.282;2023-07-20T09:50:40;8.38;;;3.40;;
6463;SDS011;3265;42.694;23.282;2023-07-20T09:53:09;9.43;;;2.90;;
6463;SDS011;3265;42.694;23.282;2023-07-20T09:55:38;8.63;;;3.30;;
6463;SDS011;3265;42.694;23.282;2023-07-20T09:58:06;11.13;;;3.70;;
6463;SDS011;3265;42.694;23.282;2023-07-20T10:00:35;13.73;;;3.10;;
6463;SDS011;3265;42.694;23.282;2023-07-20T10:03:03;9.73;;;3.10;;
6463;SDS011;3265;42.694;23.282;2023-07-20T10:05:32;18.08;;;3.10;;
6463;SDS011;3265;42.694;23.282;2023-07-20T10:08:02;10.38;;;3.15;;
6463;SDS011;3265;42.694;23.282;2023-07-20T10:10:29;12.75;;;3.15;;
6463;SDS011;3265;42.694;23.282;2023-07-20T10:12:58;12.82;;;3.25;;
6463;SDS011;3265;42.694;23.282;2023-07-20T10:15:28;9.88;;;3.42;;
6463;SDS011;3265;42.694;23.282;2023-07-20T10:18:00;7.57;;;2.83;;
6463;SDS011;3265;42.694;23.282;2023-07-20T10:20:30;10.50;;;2.92;;
6463;SDS011;3265;42.694;23.282;2023-07-20T10:22:59;6.40;;;2.72;;
6463;SDS011;3265;42.694;23.282;2023-07-20T10:25:30;11.10;;;3.30;;
6463;SDS011;3265;42.694;23.282;2023-07-20T10:27:58;10.38;;;3.63;;
6463;SDS011;3265;42.694;23.282;2023-07-20T10:30:25;10.05;;;3.28;;
6463;SDS011;3265;42.694;23.282;2023-07-20T10:32:53;7.85;;;2.85;;
6463;SDS011;3265;42.694;23.282;2023-07-20T10:35:20;9.75;;;2.97;;
6463;SDS011;3265;42.694;23.282;2023-07-20T10:37:47;9.15;;;3.03;;
6463;SDS011;3265;42.694;23.282;2023-07-20T10:43:00;10.75;;;3.08;;
6463;SDS011;3265;42.694;23.282;2023-07-20T10:45:35;7.93;;;3.03;;
6463;SDS011;3265;42.694;23.282;2023-07-20T10:48:15;8.77;;;3.05;;
6463;SDS011;3265;42.694;23.282;2023-07-20T10:50:44;8.00;;;2.90;;
6463;SDS011;3265;42.694;23.282;2023-07-20T10:53:11;5.93;;;2.65;;
6463;SDS011;3265;42.694;23.282;2023-07-20T10:55:44;12.75;;;3.63;;
6463;SDS011;3265;42.694;23.282;2023-07-20T10:58:12;10.43;;;3.38;;
6463;SDS011;3265;42.694;23.282;2023-07-20T11:00:59;9.20;;;3.35;;
6463;SDS011;3265;42.694;23.282;2023-07-20T11:03:31;8.65;;;3.10;;
6463;SDS011;3265;42.694;23.282;2023-07-20T11:05:59;8.60;;;3.17;;
6463;SDS011;3265;42.694;23.282;2023-07-20T11:08:46;8.73;;;3.28;;
6463;SDS011;3265;42.694;23.282;2023-07-20T11:11:24;9.02;;;3.10;;
6463;SDS011;3265;42.694;23.282;2023-07-20T11:13:55;11.18;;;3.42;;
6463;SDS011;3265;42.694;23.282;2023-07-20T11:16:33;7.80;;;3.35;;
6463;SDS011;3265;42.694;23.282;2023-07-20T11:19:01;5.78;;;3.00;;
6463;SDS011;3265;42.694;23.282;2023-07-20T11:21:29;10.00;;;3.42;;
6463;SDS011;3265;42.694;23.282;2023-07-20T11:24:02;9.68;;;3.70;;
6463;SDS011;3265;42.694;23.282;2023-07-20T11:26:31;12.43;;;4.20;;
6463;SDS011;3265;42.694;23.282;2023-07-20T11:29:06;10.50;;;3.30;;
6463;SDS011;3265;42.694;23.282;2023-07-20T11:31:34;7.55;;;3.63;;
6463;SDS011;3265;42.694;23.282;2023-07-20T11:34:02;10.50;;;3.60;;
6463;SDS011;3265;42.694;23.282;2023-07-20T11:36:29;8.95;;;3.72;;
6463;SDS011;3265;42.694;23.282;2023-07-20T11:38:55;8.95;;;3.70;;
6463;SDS011;3265;42.694;23.282;2023-07-20T11:41:23;11.80;;;3.60;;
6463;SDS011;3265;42.694;23.282;2023-07-20T11:43:52;9.45;;;3.53;;
6463;SDS011;3265;42.694;23.282;2023-07-20T11:46:20;5.95;;;3.50;;
6463;SDS011;3265;42.694;23.282;2023-07-20T11:48:47;10.52;;;3.83;;
6463;SDS011;3265;42.694;23.282;2023-07-20T11:51:14;8.68;;;3.40;;
6463;SDS011;3265;42.694;23.282;2023-07-20T11:53:42;11.32;;;3.95;;
6463;SDS011;3265;42.694;23.282;2023-07-20T11:56:11;9.60;;;3.50;;
6463;SDS011;3265;42.694;23.282;2023-07-20T11:58:41;12.45;;;4.22;;
6463;SDS011;3265;42.694;23.282;2023-07-20T12:01:09;8.95;;;4.13;;
6463;SDS011;3265;42.694;23.282;2023-07-20T12:03:37;9.18;;;3.42;;
6463;SDS011;3265;42.694;23.282;2023-07-20T12:06:07;11.02;;;4.03;;
6463;SDS011;3265;42.694;23.282;2023-07-20T12:08:34;8.50;;;3.70;;
6463;SDS011;3265;42.694;23.282;2023-07-20T12:11:01;10.25;;;3.90;;
6463;SDS011;3265;42.694;23.282;2023-07-20T12:13:38;8.23;;;3.50;;
6463;SDS011;3265;42.694;23.282;2023-07-20T12:16:13;7.03;;;3.42;;
6463;SDS011;3265;42.694;23.282;2023-07-20T12:18:41;8.55;;;3.45;;
6463;SDS011;3265;42.694;23.282;2023-07-20T12:21:08;10.60;;;3.88;;
6463;SDS011;3265;42.694;23.282;2023-07-20T12:23:36;9.93;;;3.50;;
6463;SDS011;3265;42.694;23.282;2023-07-20T12:26:06;14.05;;;3.70;;
6463;SDS011;3265;42.694;23.282;2023-07-20T12:28:35;10.40;;;3.47;;
6463;SDS011;3265;42.694;23.282;2023-07-20T12:31:05;15.65;;;3.38;;
6463;SDS011;3265;42.694;23.282;2023-07-20T12:33:33;8.88;;;4.00;;
6463;SDS011;3265;42.694;23.282;2023-07-20T12:36:00;9.95;;;3.67;;
6463;SDS011;3265;42.694;23.282;2023-07-20T12:38:27;9.73;;;4.00;;
6463;SDS011;3265;42.694;23.282;2023-07-20T12:40:55;7.53;;;3.47;;
6463;SDS011;3265;42.694;23.282;2023-07-20T12:43:23;11.70;;;3.42;;
6463;SDS011;3265;42.694;23.282;2023-07-20T12:45:50;7.07;;;3.10;;
6463;SDS011;3265;42.694;23.282;2023-07-20T12:48:17;7.32;;;3.55;;
6463;SDS011;3265;42.694;23.282;2023-07-20T12:50:45;8.52;;;3.40;;
6463;SDS011;3265;42.694;23.282;2023-07-20T12:53:12;9.77;;;3.30;;
6463;SDS011;3265;42.694;23.282;2023-07-20T12:55:39;10.23;;;3.28;;
6463;SDS011;3265;42.694;23.282;2023-07-20T12:58:06;9.32;;;3.72;;
6463;SDS011;3265;42.694;23.282;2023-07-20T13:00:33;9.82;;;3.30;;
6463;SDS011;3265;42.694;23.282;2023-07-20T13:03:01;12.05;;;3.75;;
6463;SDS011;3265;42.694;23.282;2023-07-20T13:05:32;9.65;;;3.35;;
6463;SDS011;3265;42.694;23.282;2023-07-20T13:08:01;10.85;;;3.65;;
6463;SDS011;3265;42.694;23.282;2023-07-20T13:10:28;9.48;;;3.45;;
6463;SDS011;3265;42.694;23.282;2023-07-20T13:12:56;11.38;;;3.78;;
6463;SDS011;3265;42.694;23.282;2023-07-20T13:15:23;10.50;;;4.10;;
6463;SDS011;3265;42.694;23.282;2023-07-20T13:17:56;12.02;;;4.30;;
6463;SDS011;3265;42.694;23.282;2023-07-20T13:20:23;18.27;;;4.93;;
6463;SDS011;3265;42.694;23.282;2023-07-20T13:22:50;9.45;;;3.90;;
6463;SDS011;3265;42.694;23.282;2023-07-20T13:25:19;10.18;;;3.47;;
6463;SDS011;3265;42.694;23.282;2023-07-20T13:27:46;10.43;;;3.72;;
6463;SDS011;3265;42.694;23.282;2023-07-20T13:30:13;11.38;;;3.85;;
6463;SDS011;3265;42.694;23.282;2023-07-20T13:32:42;10.43;;;4.30;;
6463;SDS011;3265;42.694;23.282;2023-07-20T13:35:09;10.27;;;3.50;;
6463;SDS011;3265;42.694;23.282;2023-07-20T13:37:36;10.55;;;3.13;;
6463;SDS011;3265;42.694;23.282;2023-07-20T13:40:03;10.23;;;3.05;;
6463;SDS011;3265;42.694;23.282;2023-07-20T13:42:32;11.57;;;3.45;;
6463;SDS011;3265;42.694;23.282;2023-07-20T13:44:59;6.70;;;3.25;;
6463;SDS011;3265;42.694;23.282;2023-07-20T13:47:26;6.38;;;2.97;;
6463;SDS011;3265;42.694;23.282;2023-07-20T13:49:53;7.68;;;3.40;;
6463;SDS011;3265;42.694;23.282;2023-07-20T13:52:21;11.43;;;3.13;;
6463;SDS011;3265;42.694;23.282;2023-07-20T13:54:47;13.23;;;3.33;;
6463;SDS011;3265;42.694;23.282;2023-07-20T13:57:14;12.38;;;3.35;;
6463;SDS011;3265;42.694;23.282;2023-07-20T13:59:44;13.40;;;3.78;;
6463;SDS011;3265;42.694;23.282;2023-07-20T14:02:11;10.63;;;3.83;;
6463;SDS011;3265;42.694;23.282;2023-07-20T14:04:38;11.13;;;3.10;;
6463;SDS011;3265;42.694;23.282;2023-07-20T14:07:05;8.38;;;3.45;;
6463;SDS011;3265;42.694;23.282;2023-07-20T14:09:32;13.95;;;3.00;;
6463;SDS011;3265;42.694;23.282;2023-07-20T14:11:59;12.63;;;3.42;;
6463;SDS011;3265;42.694;23.282;2023-07-20T14:14:26;12.95;;;3.58;;
6463;SDS011;3265;42.694;23.282;2023-07-20T14:16:54;16.92;;;3.13;;
6463;SDS011;3265;42.694;23.282;2023-07-20T14:19:21;11.60;;;3.92;;
6463;SDS011;3265;42.694;23.282;2023-07-20T14:21:48;11.02;;;3.25;;
6463;SDS011;3265;42.694;23.282;2023-07-20T14:24:15;14.48;;;3.90;;
6463;SDS011;3265;42.694;23.282;2023-07-20T14:26:42;7.57;;;3.00;;
6463;SDS011;3265;42.694;23.282;2023-07-20T14:29:08;11.70;;;4.15;;
6463;SDS011;3265;42.694;23.282;2023-07-20T14:31:35;24.58;;;9.82;;
6463;SDS011;3265;42.694;23.282;2023-07-20T14:34:03;19.58;;;6.70;;
6463;SDS011;3265;42.694;23.282;2023-07-20T14:36:30;13.90;;;4.03;;
6463;SDS011;3265;42.694;23.282;2023-07-20T14:38:57;9.80;;;3.13;;
6463;SDS011;3265;42.694;23.282;2023-07-20T14:41:24;9.73;;;3.05;;
6463;SDS011;3265;42.694;23.282;2023-07-20T14:43:51;11.63;;;3.20;;
6463;SDS011;3265;42.694;23.282;2023-07-20T14:46:18;13.60;;;5.28;;
6463;SDS011;3265;42.694;23.282;2023-07-20T14:48:45;15.90;;;5.80;;
6463;SDS011;3265;42.694;23.282;2023-07-20T14:51:13;12.90;;;3.83;;
6463;SDS011;3265;42.694;23.282;2023-07-20T14:53:40;13.13;;;5.80;;
6463;SDS011;3265;42.694;23.282;2023-07-20T14:56:07;14.35;;;7.45;;
6463;SDS011;3265;42.694;23.282;2023-07-20T14:58:34;22.23;;;11.80;;
6463;SDS011;3265;42.694;23.282;2023-07-20T15:01:01;24.75;;;10.45;;